Time;durP1;ratioP1;P1;durP2;ratioP2;P2;SDS_P1;SDS_P2;PMS_P1;PMS_P2;Temp;Humidity;BMP_temperature;BMP_pressure;BME280_temperature;BME280_humidity;BME280_pressure;Samples;Min_cycle;Max_cycle;Signal;HPM_P1;HPM_P2
2024/03/18 00:00:14;;;;;;;8.20;7.13;;;10.20;99.90;;;;;;4824731;29;20440;-77
2024/03/18 00:02:48;;;;;;;15.10;8.73;;;10.10;99.90;;;;;;4844322;29;20429;-77
2024/03/18 00:05:15;;;;;;;11.10;8.70;;;10.10;99.90;;;;;;4858480;29;20438;-78
2024/03/18 00:07:41;;;;;;;11.50;7.60;;;10.00;99.90;;;;;;4840974;29;20460;-77
2024/03/18 00:10:11;;;;;;;11.83;9.23;;;10.00;99.90;;;;;;4852426;29;20430;-77
2024/03/18 00:12:41;;;;;;;10.40;8.90;;;9.90;99.90;;;;;;4837884;29;20444;-77
2024/03/18 00:15:08;;;;;;;9.67;7.50;;;9.90;99.90;;;;;;4847772;29;20455;-78
2024/03/18 00:17:36;;;;;;;10.30;7.60;;;9.80;99.90;;;;;;4840710;29;20447;-76
2024/03/18 00:20:16;;;;;;;12.13;9.00;;;9.90;99.90;;;;;;4826449;29;20437;-77
2024/03/18 00:22:42;;;;;;;13.73;8.77;;;9.80;99.90;;;;;;4835245;29;20429;-77
2024/03/18 00:25:11;;;;;;;13.10;8.43;;;9.90;99.90;;;;;;4851856;29;20451;-78
2024/03/18 00:27:37;;;;;;;9.83;7.73;;;9.80;99.90;;;;;;4837430;29;20456;-77
2024/03/18 00:30:04;;;;;;;8.73;6.90;;;9.80;99.90;;;;;;4828172;29;20473;-76
2024/03/18 00:32:30;;;;;;;14.60;8.93;;;9.90;99.90;;;;;;4841216;29;20488;-78
2024/03/18 00:34:57;;;;;;;11.83;8.50;;;9.90;99.90;;;;;;4811341;29;20887;-77
2024/03/18 00:37:23;;;;;;;11.80;8.27;;;9.90;99.90;;;;;;4819242;29;20210;-77
2024/03/18 00:39:49;;;;;;;13.87;8.40;;;9.90;99.90;;;;;;4832033;29;20489;-77
2024/03/18 00:42:15;;;;;;;12.73;7.63;;;9.90;99.90;;;;;;4843197;29;20208;-77
2024/03/18 00:44:41;;;;;;;10.93;9.30;;;9.90;99.90;;;;;;4822704;29;20443;-77
2024/03/18 00:47:07;;;;;;;11.20;7.57;;;10.00;99.90;;;;;;4825658;29;20456;-77
2024/03/18 00:49:33;;;;;;;11.77;9.37;;;9.90;99.90;;;;;;4839032;29;20217;-76
2024/03/18 00:51:59;;;;;;;11.27;8.47;;;10.00;99.90;;;;;;4826525;29;20708;-76
2024/03/18 00:54:25;;;;;;;15.13;11.63;;;10.00;99.90;;;;;;4848939;29;20465;-77
2024/03/18 00:56:50;;;;;;;14.50;10.37;;;10.00;99.90;;;;;;4840454;29;20197;-77
2024/03/18 00:59:16;;;;;;;12.93;9.30;;;9.90;99.90;;;;;;4821285;29;20181;-76
2024/03/18 01:01:42;;;;;;;13.87;10.03;;;9.90;99.90;;;;;;4847517;29;20205;-76
2024/03/18 01:04:07;;;;;;;18.30;11.20;;;9.90;99.90;;;;;;4829273;29;20206;-77
2024/03/18 01:06:33;;;;;;;14.03;10.80;;;9.90;99.90;;;;;;4822511;29;20486;-76
2024/03/18 01:08:59;;;;;;;12.57;10.20;;;9.90;99.90;;;;;;4820021;29;20225;-77
2024/03/18 01:11:24;;;;;;;13.70;9.73;;;9.80;99.90;;;;;;4848869;29;20205;-76
2024/03/18 01:13:50;;;;;;;13.53;9.97;;;9.80;99.90;;;;;;4843565;29;20548;-76
2024/03/18 01:16:18;;;;;;;12.73;10.10;;;9.80;99.90;;;;;;4833571;29;20222;-76
2024/03/18 01:18:44;;;;;;;13.77;9.90;;;9.80;99.90;;;;;;4833573;29;20213;-76
2024/03/18 01:21:10;;;;;;;15.57;11.77;;;9.70;99.90;;;;;;4845542;29;20438;-76
2024/03/18 01:23:36;;;;;;;20.40;10.87;;;9.70;99.90;;;;;;4814993;29;20233;-75
2024/03/18 01:26:02;;;;;;;14.83;9.87;;;9.70;99.90;;;;;;4821674;29;20477;-77
2024/03/18 01:28:28;;;;;;;17.63;11.60;;;9.70;99.90;;;;;;4840499;29;20478;-77
2024/03/18 01:30:54;;;;;;;13.87;10.30;;;9.60;99.90;;;;;;4807210;29;20198;-77
2024/03/18 01:33:19;;;;;;;17.37;11.40;;;9.60;99.90;;;;;;4842506;29;20441;-77
2024/03/18 01:35:46;;;;;;;15.67;10.57;;;9.60;99.90;;;;;;4830085;29;20216;-76
2024/03/18 01:38:12;;;;;;;17.00;12.43;;;9.50;99.90;;;;;;4838445;29;20236;-76
2024/03/18 01:40:41;;;;;;;15.50;10.40;;;9.50;99.90;;;;;;4843217;29;20890;-77
2024/03/18 01:43:07;;;;;;;15.23;9.97;;;9.50;99.90;;;;;;4835960;29;20507;-76
2024/03/18 01:45:33;;;;;;;16.00;11.00;;;9.50;99.90;;;;;;4845724;29;20737;-75
2024/03/18 01:47:58;;;;;;;15.67;11.37;;;9.50;99.90;;;;;;4825308;29;20446;-77
2024/03/18 01:50:24;;;;;;;16.57;11.70;;;9.50;99.90;;;;;;4835325;29;20219;-76
2024/03/18 01:52:49;;;;;;;14.13;10.67;;;9.50;99.90;;;;;;4844136;29;20275;-78
2024/03/18 01:55:16;;;;;;;15.40;10.60;;;9.40;99.90;;;;;;4848452;29;20193;-77
2024/03/18 01:57:43;;;;;;;16.00;11.23;;;9.40;99.90;;;;;;4848169;29;20221;-77
2024/03/18 02:00:15;;;;;;;15.67;10.80;;;9.40;99.90;;;;;;4841393;29;20431;-76
2024/03/18 02:02:44;;;;;;;21.00;11.60;;;9.40;99.90;;;;;;4834041;29;20509;-76
2024/03/18 02:05:10;;;;;;;16.00;11.40;;;9.40;99.90;;;;;;4835412;29;20430;-76
2024/03/18 02:07:37;;;;;;;16.50;11.23;;;9.40;99.90;;;;;;4835537;29;20459;-76
2024/03/18 02:10:04;;;;;;;18.10;10.63;;;9.40;99.90;;;;;;4843041;29;20181;-77
2024/03/18 02:12:30;;;;;;;14.50;10.87;;;9.40;99.90;;;;;;4838224;29;20486;-78
2024/03/18 02:14:56;;;;;;;16.93;11.93;;;9.40;99.90;;;;;;4820841;29;20786;-77
2024/03/18 02:17:22;;;;;;;16.47;11.93;;;9.40;99.90;;;;;;4820179;29;20452;-76
2024/03/18 02:19:47;;;;;;;21.00;12.33;;;9.50;99.90;;;;;;4836044;29;20208;-75
2024/03/18 02:22:13;;;;;;;17.70;11.53;;;9.40;99.90;;;;;;4838659;29;20428;-76
2024/03/18 02:24:39;;;;;;;17.90;11.27;;;9.40;99.90;;;;;;4838342;29;20177;-76
2024/03/18 02:27:06;;;;;;;20.83;11.70;;;9.40;99.90;;;;;;4840374;29;20515;-77
2024/03/18 02:29:32;;;;;;;17.27;10.57;;;9.40;99.90;;;;;;4825493;29;20497;-77
2024/03/18 02:31:58;;;;;;;20.90;11.67;;;9.40;99.90;;;;;;4812959;29;20464;-78
2024/03/18 02:34:23;;;;;;;18.47;11.80;;;9.40;99.90;;;;;;4820711;29;20621;-78
2024/03/18 02:36:49;;;;;;;19.97;11.07;;;9.40;99.90;;;;;;4835469;29;20227;-76
2024/03/18 02:39:15;;;;;;;19.37;13.43;;;9.40;99.90;;;;;;4817334;29;20253;-77
2024/03/18 02:41:40;;;;;;;17.47;12.80;;;9.40;99.90;;;;;;4835581;29;20663;-76
2024/03/18 02:44:12;;;;;;;16.03;11.33;;;9.40;99.90;;;;;;4843185;29;20249;-76
2024/03/18 02:46:38;;;;;;;18.23;12.03;;;9.40;99.90;;;;;;4829624;29;20669;-76
2024/03/18 02:49:04;;;;;;;18.87;12.70;;;9.40;99.90;;;;;;4837987;29;20485;-77
2024/03/18 02:51:30;;;;;;;19.80;14.53;;;9.40;99.90;;;;;;4838693;29;20236;-77
2024/03/18 02:53:55;;;;;;;18.40;12.37;;;9.40;99.90;;;;;;4830677;29;20475;-76
2024/03/18 02:56:21;;;;;;;19.87;14.47;;;9.40;99.90;;;;;;4835402;29;20493;-77
2024/03/18 02:58:47;;;;;;;21.97;14.47;;;9.40;99.90;;;;;;4832652;29;20686;-76
2024/03/18 03:01:12;;;;;;;17.67;13.07;;;9.40;99.90;;;;;;4838858;29;20222;-76
2024/03/18 03:03:38;;;;;;;19.40;13.60;;;9.40;99.90;;;;;;4841199;29;20562;-77
2024/03/18 03:06:06;;;;;;;22.43;14.50;;;9.40;99.90;;;;;;4829741;29;20225;-77
2024/03/18 03:08:31;;;;;;;21.73;12.57;;;9.40;99.90;;;;;;4830111;29;20941;-76
2024/03/18 03:10:57;;;;;;;25.63;13.97;;;9.40;99.90;;;;;;4833700;29;20426;-76
2024/03/18 03:13:23;;;;;;;19.47;13.40;;;9.40;99.90;;;;;;4839213;29;20763;-77
2024/03/18 03:15:48;;;;;;;22.80;14.53;;;9.40;99.90;;;;;;4814608;29;20201;-75
2024/03/18 03:18:14;;;;;;;21.90;13.30;;;9.40;99.90;;;;;;4842437;29;20189;-76
2024/03/18 03:20:40;;;;;;;20.83;12.97;;;9.40;99.90;;;;;;4840381;29;20209;-77
2024/03/18 03:23:07;;;;;;;17.87;12.83;;;9.40;99.90;;;;;;4835137;29;20204;-76
2024/03/18 03:25:32;;;;;;;19.00;13.47;;;9.40;99.90;;;;;;4820168;29;20788;-76
2024/03/18 03:27:58;;;;;;;20.73;13.00;;;9.40;99.90;;;;;;4829920;29;20463;-77
2024/03/18 03:30:24;;;;;;;25.13;14.00;;;9.40;99.90;;;;;;4811608;29;20189;-77
2024/03/18 03:32:50;;;;;;;18.57;13.37;;;9.40;99.90;;;;;;4821030;29;20190;-76
2024/03/18 03:35:16;;;;;;;21.37;14.37;;;9.40;99.90;;;;;;4838781;29;20434;-76
2024/03/18 03:37:42;;;;;;;17.80;12.97;;;9.40;99.90;;;;;;4837698;29;20282;-77
2024/03/18 03:40:11;;;;;;;20.83;13.67;;;9.40;99.90;;;;;;4834933;29;20435;-77
2024/03/18 03:42:37;;;;;;;21.30;14.00;;;9.40;99.90;;;;;;4830355;29;20855;-76
2024/03/18 03:45:03;;;;;;;24.70;15.23;;;9.40;99.90;;;;;;4826457;29;20434;-76
2024/03/18 03:47:29;;;;;;;23.70;15.97;;;9.40;99.90;;;;;;4824789;29;20688;-77
2024/03/18 03:49:54;;;;;;;22.30;13.83;;;9.40;99.90;;;;;;4819517;29;20478;-76
2024/03/18 03:52:20;;;;;;;27.53;14.33;;;9.40;99.90;;;;;;4818968;29;20202;-77
2024/03/18 03:54:46;;;;;;;24.17;14.40;;;9.40;99.90;;;;;;4835869;29;20464;-75
2024/03/18 03:57:11;;;;;;;21.77;14.20;;;9.40;99.90;;;;;;4836026;29;20308;-76
2024/03/18 03:59:37;;;;;;;23.17;14.50;;;9.30;99.90;;;;;;4833101;29;20224;-77
2024/03/18 04:02:05;;;;;;;25.57;16.30;;;9.30;99.90;;;;;;4836149;29;20201;-75
2024/03/18 04:04:30;;;;;;;20.77;15.00;;;9.40;99.90;;;;;;4829716;29;20259;-76
2024/03/18 04:06:56;;;;;;;26.53;15.53;;;9.40;99.90;;;;;;4835277;29;20457;-76
2024/03/18 04:09:22;;;;;;;21.67;13.83;;;9.40;99.90;;;;;;4807214;29;20229;-77
2024/03/18 04:11:48;;;;;;;24.77;15.90;;;9.40;99.90;;;;;;4838841;29;20266;-75
2024/03/18 04:14:14;;;;;;;29.10;14.87;;;9.40;99.90;;;;;;4836652;29;20592;-76
2024/03/18 04:16:40;;;;;;;24.77;15.07;;;9.40;99.90;;;;;;4839000;29;20657;-78
2024/03/18 04:19:07;;;;;;;24.07;14.87;;;9.40;99.90;;;;;;4812753;29;20843;-76
2024/03/18 04:21:32;;;;;;;26.63;15.70;;;9.40;99.90;;;;;;4845399;29;20723;-76
2024/03/18 04:23:59;;;;;;;22.40;15.13;;;9.40;99.90;;;;;;4820715;29;20429;-76
2024/03/18 04:26:24;;;;;;;25.67;13.90;;;9.40;99.90;;;;;;4822825;29;20225;-76
2024/03/18 04:28:51;;;;;;;23.30;14.50;;;9.40;99.90;;;;;;4826356;29;20476;-76
2024/03/18 04:31:20;;;;;;;25.73;16.10;;;9.40;99.90;;;;;;4845734;29;20232;-77
2024/03/18 04:33:47;;;;;;;21.87;15.33;;;9.50;99.90;;;;;;4834817;29;20449;-78
2024/03/18 04:36:12;;;;;;;24.20;14.77;;;9.50;99.90;;;;;;4838851;29;20774;-76
2024/03/18 04:38:38;;;;;;;21.33;15.60;;;9.50;99.90;;;;;;4833769;29;20488;-76
2024/03/18 04:41:04;;;;;;;26.70;16.00;;;9.50;99.90;;;;;;4844271;29;20213;-77
2024/03/18 04:43:30;;;;;;;24.07;15.70;;;9.50;99.90;;;;;;4831143;29;20591;-76
2024/03/18 04:45:55;;;;;;;22.20;14.83;;;9.50;99.90;;;;;;4815057;29;20487;-77
2024/03/18 04:48:21;;;;;;;22.47;16.00;;;9.60;99.90;;;;;;4824378;29;20491;-77
2024/03/18 04:50:47;;;;;;;23.87;14.10;;;9.50;99.90;;;;;;4816689;29;20189;-76
2024/03/18 04:53:12;;;;;;;18.40;13.47;;;9.50;99.90;;;;;;4839815;29;20634;-75
2024/03/18 04:55:38;;;;;;;21.80;14.30;;;9.50;99.90;;;;;;4834726;29;20899;-76
2024/03/18 04:58:04;;;;;;;23.47;15.20;;;9.50;99.90;;;;;;4843331;29;20198;-77
2024/03/18 05:00:32;;;;;;;22.90;15.53;;;9.50;99.90;;;;;;4817186;29;20192;-76
2024/03/18 05:02:58;;;;;;;20.63;14.10;;;9.50;99.90;;;;;;4848888;29;20190;-77
2024/03/18 05:05:24;;;;;;;22.20;14.93;;;9.50;99.90;;;;;;4855424;29;20502;-76
2024/03/18 05:07:49;;;;;;;20.63;13.87;;;9.50;99.90;;;;;;4838913;29;20315;-77
2024/03/18 05:10:21;;;;;;;20.60;13.50;;;9.40;99.90;;;;;;4853578;29;20181;-75
2024/03/18 05:12:48;;;;;;;21.60;14.43;;;9.40;99.90;;;;;;4855737;29;20194;-76
2024/03/18 05:15:14;;;;;;;21.03;13.50;;;9.40;99.90;;;;;;4845819;29;20663;-77
2024/03/18 05:17:39;;;;;;;22.40;13.73;;;9.30;99.90;;;;;;4834109;29;20954;-77
2024/03/18 05:20:12;;;;;;;19.70;12.70;;;9.30;99.90;;;;;;4848524;29;20218;-75
2024/03/18 05:22:38;;;;;;;20.27;13.23;;;9.30;99.90;;;;;;4839207;29;20201;-76
2024/03/18 05:25:07;;;;;;;22.83;15.03;;;9.30;99.90;;;;;;4855870;29;20438;-75
2024/03/18 05:27:32;;;;;;;25.00;15.37;;;9.20;99.90;;;;;;4852786;29;20469;-77
2024/03/18 05:29:59;;;;;;;26.20;15.40;;;9.20;99.90;;;;;;4819143;29;20471;-77
2024/03/18 05:32:25;;;;;;;18.57;12.43;;;9.20;99.90;;;;;;4852027;29;20189;-77
2024/03/18 05:34:52;;;;;;;24.40;12.53;;;9.20;99.90;;;;;;4844767;29;20923;-76
2024/03/18 05:37:18;;;;;;;19.17;12.90;;;9.20;99.90;;;;;;4863516;29;20205;-77
2024/03/18 05:39:45;;;;;;;21.83;13.40;;;9.20;99.90;;;;;;4832595;29;20418;-79
2024/03/18 05:42:10;;;;;;;20.03;13.80;;;9.20;99.90;;;;;;4825045;29;20438;-78
2024/03/18 05:44:37;;;;;;;25.37;14.40;;;9.10;99.90;;;;;;4832142;29;20430;-78
2024/03/18 05:47:04;;;;;;;24.30;14.57;;;9.10;99.90;;;;;;4830096;29;20218;-78
2024/03/18 05:49:30;;;;;;;19.90;13.60;;;9.10;99.90;;;;;;4844498;29;20478;-78
2024/03/18 05:51:56;;;;;;;19.30;12.90;;;9.00;99.90;;;;;;4845997;29;20421;-77
2024/03/18 05:54:22;;;;;;;25.60;15.83;;;9.00;99.90;;;;;;4856096;29;20205;-78
2024/03/18 05:56:48;;;;;;;19.47;12.40;;;9.00;99.90;;;;;;4820575;29;20504;-78
2024/03/18 05:59:18;;;;;;;17.43;11.37;;;9.10;99.90;;;;;;4815107;29;20490;-81
2024/03/18 06:01:48;;;;;;;24.83;13.90;;;9.10;99.90;;;;;;4842129;29;20454;-78
2024/03/18 06:04:14;;;;;;;18.73;12.70;;;9.20;99.90;;;;;;4841878;29;20483;-76
2024/03/18 06:06:40;;;;;;;16.63;10.90;;;9.20;99.90;;;;;;4837422;29;20291;-78
2024/03/18 06:09:07;;;;;;;19.60;12.23;;;9.30;99.90;;;;;;4836482;29;20506;-77
2024/03/18 06:11:38;;;;;;;16.47;10.97;;;9.30;99.90;;;;;;4811683;29;20710;-77
2024/03/18 06:14:10;;;;;;;17.63;12.63;;;9.40;99.90;;;;;;4854611;29;20431;-79
2024/03/18 06:16:37;;;;;;;16.67;11.33;;;9.50;99.90;;;;;;4834315;29;20448;-77
2024/03/18 06:19:06;;;;;;;15.13;10.43;;;9.60;99.90;;;;;;4821645;29;20454;-77
2024/03/18 06:21:49;;;;;;;19.20;13.50;;;9.60;99.90;;;;;;4845493;29;20443;-77
2024/03/18 06:24:25;;;;;;;17.37;12.63;;;9.70;99.90;;;;;;4825414;29;20418;-78
2024/03/18 06:26:51;;;;;;;22.00;13.63;;;9.70;99.90;;;;;;4801540;29;20530;-77
2024/03/18 06:29:17;;;;;;;19.97;13.70;;;9.70;99.90;;;;;;4828727;29;20470;-79
2024/03/18 06:31:42;;;;;;;19.40;13.33;;;9.70;99.90;;;;;;4827732;29;20220;-78
2024/03/18 06:34:09;;;;;;;20.10;13.10;;;9.70;99.90;;;;;;4852677;29;20435;-78
2024/03/18 06:36:36;;;;;;;15.30;10.80;;;9.80;99.90;;;;;;4859620;29;20197;-79
2024/03/18 06:39:02;;;;;;;14.43;10.20;;;9.90;99.90;;;;;;4811759;29;20450;-80
2024/03/18 06:41:33;;;;;;;17.90;13.17;;;9.90;99.90;;;;;;4844309;29;20435;-80
2024/03/18 06:44:00;;;;;;;19.13;13.50;;;10.00;99.90;;;;;;4838207;29;20428;-80
2024/03/18 06:46:26;;;;;;;19.40;13.83;;;10.00;99.90;;;;;;4812951;29;20528;-79
2024/03/18 06:48:52;;;;;;;16.67;11.73;;;10.00;99.90;;;;;;4830534;29;20461;-80
2024/03/18 06:51:17;;;;;;;18.00;12.80;;;10.00;99.90;;;;;;4837080;29;20194;-81
2024/03/18 06:53:44;;;;;;;17.60;12.40;;;10.00;99.90;;;;;;4827403;29;20260;-79
2024/03/18 06:56:11;;;;;;;17.30;11.10;;;10.00;99.90;;;;;;4846156;29;20293;-81
2024/03/18 06:58:40;;;;;;;14.83;10.70;;;10.00;99.90;;;;;;4831282;29;20408;-78
2024/03/18 07:01:09;;;;;;;18.30;11.80;;;10.00;99.90;;;;;;4837147;29;20430;-77
2024/03/18 07:03:36;;;;;;;16.63;12.30;;;10.10;99.90;;;;;;4818874;29;20417;-78
2024/03/18 07:06:03;;;;;;;15.10;11.00;;;10.10;99.90;;;;;;4845216;29;20491;-80
2024/03/18 07:08:29;;;;;;;15.47;10.97;;;10.20;99.90;;;;;;4846072;29;20479;-77
2024/03/18 07:10:55;;;;;;;15.40;11.53;;;10.40;99.90;;;;;;4838788;29;20519;-80
2024/03/18 07:13:21;;;;;;;15.83;10.63;;;10.50;99.90;;;;;;4771312;29;20225;-80
2024/03/18 07:15:48;;;;;;;13.17;10.67;;;10.70;99.90;;;;;;4829745;29;20420;-78
2024/03/18 07:18:16;;;;;;;12.37;10.37;;;10.90;99.90;;;;;;4829646;29;20439;-81
2024/03/18 07:20:42;;;;;;;12.73;10.40;;;11.00;99.90;;;;;;4822896;29;20460;-78
2024/03/18 07:23:11;;;;;;;12.30;9.10;;;11.10;99.90;;;;;;4819542;29;20416;-82
2024/03/18 07:25:40;;;;;;;12.30;9.73;;;11.20;99.90;;;;;;4831707;29;20215;-83
2024/03/18 07:28:08;;;;;;;12.63;10.30;;;11.20;99.90;;;;;;4816349;29;20468;-79
2024/03/18 07:30:34;;;;;;;13.23;10.93;;;11.20;99.90;;;;;;4827863;29;20477;-81
2024/03/18 07:32:59;;;;;;;12.30;8.90;;;11.20;99.90;;;;;;4840025;29;20206;-78
2024/03/18 07:35:25;;;;;;;9.67;8.40;;;11.20;99.90;;;;;;4818981;29;20201;-79
2024/03/18 07:37:51;;;;;;;12.03;9.30;;;11.30;99.90;;;;;;4834221;29;20244;-79
2024/03/18 07:40:17;;;;;;;13.33;10.40;;;11.40;99.90;;;;;;4859500;29;20238;-79
2024/03/18 07:42:43;;;;;;;12.77;9.70;;;11.50;99.90;;;;;;4840664;29;20518;-79
2024/03/18 07:45:09;;;;;;;18.73;10.90;;;11.50;99.90;;;;;;4813606;29;20461;-79
2024/03/18 07:47:35;;;;;;;12.30;9.37;;;11.50;99.90;;;;;;4822942;29;20285;-78
2024/03/18 07:50:03;;;;;;;16.30;10.50;;;11.60;99.90;;;;;;4830129;29;20492;-78
2024/03/18 07:52:29;;;;;;;13.13;10.40;;;11.70;99.90;;;;;;4826028;29;20330;-79
2024/03/18 07:54:58;;;;;;;12.40;10.67;;;11.70;99.90;;;;;;4850530;29;20454;-77
2024/03/18 07:57:28;;;;;;;12.23;9.83;;;11.80;99.90;;;;;;4807935;30;20455;-81
2024/03/18 07:59:54;;;;;;;14.70;10.80;;;11.80;99.90;;;;;;4817053;29;20437;-78
2024/03/18 08:02:20;;;;;;;13.67;10.40;;;11.90;99.90;;;;;;4835110;29;20452;-78
2024/03/18 08:04:49;;;;;;;11.77;9.37;;;11.90;99.90;;;;;;4819658;29;20451;-79
2024/03/18 08:07:15;;;;;;;13.73;9.17;;;12.00;99.90;;;;;;4808484;29;20218;-79
2024/03/18 08:09:41;;;;;;;8.40;7.37;;;12.10;99.90;;;;;;4814891;29;20573;-81
2024/03/18 08:12:07;;;;;;;12.40;8.33;;;12.20;99.90;;;;;;4817313;29;20436;-79
2024/03/18 08:14:36;;;;;;;11.53;9.00;;;12.30;99.90;;;;;;4838328;29;20445;-81
2024/03/18 08:17:04;;;;;;;12.87;8.83;;;12.30;99.90;;;;;;4833063;29;20210;-80
2024/03/18 08:19:33;;;;;;;12.40;7.90;;;12.40;99.90;;;;;;4830025;29;20432;-79
2024/03/18 08:22:00;;;;;;;13.10;10.50;;;12.50;99.90;;;;;;4819181;29;20476;-80
2024/03/18 08:24:25;;;;;;;13.20;10.10;;;12.50;99.90;;;;;;4850509;29;20420;-80
2024/03/18 08:26:54;;;;;;;15.00;10.17;;;12.50;99.90;;;;;;4864947;29;20497;-81
2024/03/18 08:29:21;;;;;;;13.60;8.77;;;12.60;99.90;;;;;;4791887;30;20468;-80
2024/03/18 08:31:47;;;;;;;10.73;9.20;;;12.60;99.90;;;;;;4833539;29;20442;-78
2024/03/18 08:34:16;;;;;;;12.97;9.03;;;12.70;99.90;;;;;;4849184;29;20419;-80
2024/03/18 08:36:42;;;;;;;9.33;8.27;;;12.80;99.90;;;;;;4810854;29;20459;-80
2024/03/18 08:39:13;;;;;;;11.70;9.17;;;12.90;99.90;;;;;;4816184;29;20491;-81
2024/03/18 08:41:47;;;;;;;9.73;8.13;;;13.00;99.90;;;;;;4822791;29;20446;-80
2024/03/18 08:44:16;;;;;;;9.83;6.93;;;13.10;99.90;;;;;;4831637;29;20434;-82
2024/03/18 08:46:44;;;;;;;8.27;6.43;;;13.30;99.90;;;;;;4830151;29;20221;-79
2024/03/18 08:49:13;;;;;;;8.93;7.50;;;13.50;99.90;;;;;;4823820;29;20471;-81
2024/03/18 08:51:43;;;;;;;6.70;5.17;;;13.60;99.90;;;;;;4812140;29;20495;-80
2024/03/18 08:54:10;;;;;;;6.93;6.23;;;13.80;99.90;;;;;;4823778;29;20494;-79
2024/03/18 08:59:27;;;;;;;9.57;7.57;;;14.00;99.90;;;;;;4848571;29;20478;-81
2024/03/18 09:02:05;;;;;;;10.70;8.77;;;14.10;99.90;;;;;;4849966;29;20445;-81
2024/03/18 09:04:35;;;;;;;10.90;9.03;;;14.20;99.90;;;;;;4835259;29;20461;-81
2024/03/18 09:07:32;;;;;;;11.00;8.37;;;14.10;99.90;;;;;;4848450;29;20481;-81
2024/03/18 09:09:58;;;;;;;9.40;8.40;;;14.10;99.90;;;;;;4834427;29;20465;-80
2024/03/18 09:12:25;;;;;;;9.10;8.20;;;14.10;99.90;;;;;;4840512;29;20413;-81
2024/03/18 09:14:54;;;;;;;10.23;8.13;;;14.30;99.90;;;;;;4837074;29;20177;-80
2024/03/18 09:17:31;;;;;;;12.43;8.57;;;14.40;99.90;;;;;;4868093;29;20449;-79
2024/03/18 09:19:58;;;;;;;9.03;7.90;;;14.60;99.90;;;;;;4835814;29;20430;-79
2024/03/18 09:22:25;;;;;;;9.50;7.40;;;14.60;99.90;;;;;;4860967;29;20443;-78
2024/03/18 09:24:53;;;;;;;9.00;7.33;;;14.70;99.90;;;;;;4833763;29;20408;-80
2024/03/18 09:27:20;;;;;;;7.80;7.00;;;14.70;99.90;;;;;;4818254;29;20510;-82
2024/03/18 09:30:23;;;;;;;8.67;6.60;;;14.70;99.90;;;;;;4836323;29;20487;-80
2024/03/18 09:32:50;;;;;;;9.53;8.37;;;14.80;99.90;;;;;;4849151;29;20422;-81
2024/03/18 09:35:20;;;;;;;7.60;6.60;;;14.90;99.90;;;;;;4835375;29;20440;-80
2024/03/18 09:37:45;;;;;;;7.87;6.57;;;15.00;99.90;;;;;;4844700;29;20474;-79
2024/03/18 09:40:18;;;;;;;6.00;5.40;;;15.10;99.90;;;;;;4844684;29;20442;-81
2024/03/18 09:43:00;;;;;;;6.63;5.37;;;15.30;99.90;;;;;;4836023;29;20167;-78
2024/03/18 09:45:27;;;;;;;7.10;5.00;;;15.50;99.90;;;;;;4814567;29;20420;-81
2024/03/18 09:47:56;;;;;;;10.20;6.93;;;15.60;99.90;;;;;;4824928;29;20456;-82
2024/03/18 09:50:25;;;;;;;7.07;5.90;;;15.70;99.90;;;;;;4834052;29;20448;-80
2024/03/18 09:52:53;;;;;;;10.23;6.50;;;15.60;99.90;;;;;;4933270;24;20541;-78
2024/03/18 09:55:23;;;;;;;5.47;4.83;;;15.60;99.90;;;;;;4831189;29;20502;-80
2024/03/18 09:57:49;;;;;;;5.33;4.83;;;15.50;99.90;;;;;;4936641;24;20582;-80
2024/03/18 10:00:19;;;;;;;6.33;4.83;;;15.70;99.90;;;;;;4882580;24;20505;-79
2024/03/18 10:02:48;;;;;;;9.30;6.00;;;16.00;99.90;;;;;;4836443;24;20496;-79
2024/03/18 10:05:15;;;;;;;8.67;5.60;;;16.00;99.90;;;;;;4862825;29;20515;-79
2024/03/18 10:07:45;;;;;;;7.10;5.20;;;16.00;99.90;;;;;;4829911;29;20492;-82
2024/03/18 10:13:01;;;;;;;6.27;4.87;;;16.10;99.90;;;;;;4897943;24;20534;-81
2024/03/18 10:16:00;;;;;;;6.13;4.57;;;16.20;99.90;;;;;;4869218;29;20450;-80
2024/03/18 10:18:27;;;;;;;7.00;3.40;;;16.30;99.90;;;;;;4835337;29;20428;-79
2024/03/18 10:20:54;;;;;;;8.27;3.63;;;16.40;99.90;;;;;;4851649;29;20428;-80
2024/03/18 10:23:22;;;;;;;7.40;2.77;;;16.40;99.90;;;;;;4835757;29;20210;-79
2024/03/18 10:26:07;;;;;;;4.13;2.20;;;16.40;99.90;;;;;;4836573;29;20414;-79
2024/03/18 10:28:45;;;;;;;8.63;3.70;;;16.60;99.90;;;;;;5037512;24;20459;-81
2024/03/18 10:31:37;;;;;;;4.20;2.73;;;16.80;99.90;;;;;;4846820;29;20461;-80
2024/03/18 10:34:09;;;;;;;3.80;2.03;;;16.90;99.90;;;;;;4853070;29;20601;-80
2024/03/18 10:36:41;;;;;;;5.63;2.77;;;17.20;99.90;;;;;;4861996;29;20458;-81
2024/03/18 10:39:15;;;;;;;8.70;2.70;;;17.30;99.90;;;;;;4817533;29;20492;-81
2024/03/18 10:42:08;;;;;;;4.60;2.30;;;17.20;99.30;;;;;;4848164;29;20440;-82
2024/03/18 10:44:42;;;;;;;3.20;2.00;;;17.10;98.10;;;;;;4857666;29;20497;-81
2024/03/18 10:47:11;;;;;;;4.90;2.57;;;16.80;97.60;;;;;;4820734;29;20451;-82
2024/03/18 10:49:46;;;;;;;4.87;2.10;;;16.60;98.60;;;;;;4836375;29;20482;-81
2024/03/18 10:52:17;;;;;;;4.70;2.30;;;16.70;99.50;;;;;;4831648;29;20422;-82
2024/03/18 10:54:43;;;;;;;5.53;3.17;;;16.70;98.30;;;;;;4810520;29;20483;-80
2024/03/18 10:59:59;;;;;;;6.60;2.67;;;16.70;97.80;;;;;;5369160;24;20559;-82
2024/03/18 11:02:29;;;;;;;3.83;2.07;;;16.70;97.30;;;;;;4831503;29;20435;-79
2024/03/18 11:05:01;;;;;;;4.70;1.90;;;16.70;96.70;;;;;;4802063;29;20441;-80
2024/03/18 11:07:32;;;;;;;5.07;2.70;;;16.60;97.20;;;;;;4831953;29;20485;-82
2024/03/18 11:10:26;;;;;;;6.47;2.57;;;16.60;96.90;;;;;;4810202;29;20462;-81
2024/03/18 11:12:52;;;;;;;6.60;2.70;;;16.50;97.20;;;;;;4832687;29;20477;-82
2024/03/18 11:18:29;;;;;;;7.60;2.70;;;16.90;95.80;;;;;;4358830;27;20536;-80
2024/03/18 11:21:01;;;;;;;5.30;2.27;;;17.10;95.30;;;;;;4799984;29;20436;-80
2024/03/18 11:23:32;;;;;;;5.90;3.03;;;17.20;94.40;;;;;;4782930;29;20452;-79
2024/03/18 11:25:58;;;;;;;6.77;2.93;;;17.30;93.20;;;;;;4781484;29;20481;-81
2024/03/18 11:28:39;;;;;;;3.47;2.10;;;17.20;92.70;;;;;;4828105;29;20456;-80
2024/03/18 11:31:07;;;;;;;7.03;2.80;;;17.30;93.20;;;;;;4813641;29;20503;-79
2024/03/18 11:33:38;;;;;;;6.30;2.03;;;17.40;92.00;;;;;;4828359;29;20428;-79
2024/03/18 11:36:09;;;;;;;3.43;2.00;;;17.40;91.50;;;;;;4812884;29;20479;-80
2024/03/18 11:38:43;;;;;;;5.40;2.47;;;17.50;91.90;;;;;;4813658;29;20523;-80
2024/03/18 11:41:13;;;;;;;5.10;2.90;;;17.50;91.10;;;;;;5092518;24;20479;-80
2024/03/18 11:43:49;;;;;;;7.57;3.13;;;17.20;90.90;;;;;;4847795;29;20430;-81
2024/03/18 11:46:45;;;;;;;8.77;3.83;;;17.00;90.90;;;;;;4783323;29;20456;-81
2024/03/18 11:49:17;;;;;;;7.20;2.40;;;17.00;91.10;;;;;;4804895;29;20562;-81
2024/03/18 11:51:45;;;;;;;9.77;3.10;;;16.80;91.40;;;;;;4795602;29;20443;-80
2024/03/18 11:54:27;;;;;;;4.20;2.40;;;16.70;92.20;;;;;;4770168;30;20442;-82
2024/03/18 11:57:06;;;;;;;3.10;2.30;;;16.70;92.50;;;;;;4780937;29;20449;-82
2024/03/18 12:02:45;;;;;;;3.30;2.00;;;16.90;92.70;;;;;;5259596;24;20486;-80
2024/03/18 12:05:15;;;;;;;7.43;2.67;;;17.00;92.30;;;;;;4856499;29;20454;-83
2024/03/18 12:08:00;;;;;;;7.40;3.10;;;16.90;91.40;;;;;;4837580;29;20513;-82
2024/03/18 12:10:29;;;;;;;5.20;2.60;;;16.90;92.10;;;;;;4829435;29;20447;-79
2024/03/18 12:13:17;;;;;;;6.37;3.10;;;17.00;91.00;;;;;;4864609;29;20401;-81
2024/03/18 12:15:44;;;;;;;4.53;2.40;;;16.90;90.40;;;;;;4853026;29;20492;-82
2024/03/18 12:18:10;;;;;;;5.23;2.40;;;17.00;89.50;;;;;;4839084;29;20429;-81
2024/03/18 12:20:38;;;;;;;4.03;1.63;;;17.30;89.30;;;;;;4834814;29;20495;-81
2024/03/18 12:23:10;;;;;;;6.00;3.60;;;17.60;87.60;;;;;;4836494;29;20403;-79
2024/03/18 12:29:01;;;;;;;5.27;2.00;;;17.90;86.90;;;;;;4857478;29;20517;-81
2024/03/18 12:31:54;;;;;;;4.47;3.20;;;17.80;86.30;;;;;;4854606;29;20433;-80
2024/03/18 12:34:24;;;;;;;5.47;3.53;;;17.70;85.00;;;;;;4816715;29;20428;-83
2024/03/18 12:37:21;;;;;;;7.67;2.93;;;17.40;87.00;;;;;;4787313;29;20435;-82
2024/03/18 12:40:09;;;;;;;5.67;3.20;;;17.40;87.20;;;;;;4816558;29;20407;-82
2024/03/18 12:42:46;;;;;;;6.93;3.47;;;17.60;88.70;;;;;;4842047;29;20453;-81
2024/03/18 12:45:30;;;;;;;7.70;3.53;;;17.70;88.20;;;;;;4806718;29;20398;-79
2024/03/18 12:47:59;;;;;;;8.63;3.83;;;17.70;86.70;;;;;;4861237;24;20559;-83
2024/03/18 12:50:27;;;;;;;8.53;4.90;;;17.50;87.30;;;;;;4925361;24;20482;-81
2024/03/18 12:52:54;;;;;;;7.57;3.77;;;17.00;88.20;;;;;;4836696;29;20529;-80
2024/03/18 12:55:25;;;;;;;5.37;2.80;;;16.90;90.00;;;;;;4830049;29;20446;-81
2024/03/18 12:57:53;;;;;;;7.20;3.13;;;17.00;90.30;;;;;;4850888;29;20449;-80
2024/03/18 13:00:20;;;;;;;7.40;4.20;;;17.10;90.40;;;;;;4834852;29;20469;-78
2024/03/18 13:02:47;;;;;;;4.07;2.87;;;17.20;89.40;;;;;;4836237;29;20437;-81
2024/03/18 13:08:08;;;;;;;6.93;3.00;;;17.10;87.40;;;;;;4857761;23;20531;-80